createdAt,value
2022-08-17T00:02:22.409Z,20.80
2022-08-17T00:05:31.359Z,13.45
2022-08-17T00:08:37.229Z,17.95
2022-08-17T00:11:42.035Z,13.75
2022-08-17T00:14:43.659Z,10.93
2022-08-17T00:17:47.581Z,16.35
2022-08-17T00:20:49.203Z,13.60
2022-08-17T00:23:50.992Z,18.83
2022-08-17T00:26:52.599Z,12.30
2022-08-17T00:29:54.164Z,16.70
2022-08-17T00:33:23.256Z,13.43
2022-08-17T00:36:18.354Z,12.25
2022-08-17T00:39:19.971Z,14.35
2022-08-17T00:42:21.575Z,13.85
2022-08-17T00:45:23.256Z,19.02
2022-08-17T00:48:30.070Z,12.70
2022-08-17T00:51:43.611Z,15.48
2022-08-17T00:54:48.317Z,15.43
2022-08-17T00:57:55.502Z,14.10
2022-08-17T01:01:02.046Z,19.80
2022-08-17T01:04:05.014Z,13.70
2022-08-17T01:07:07.318Z,16.17
2022-08-17T01:10:58.195Z,14.60
2022-08-17T01:13:41.686Z,13.95
2022-08-17T01:16:43.554Z,13.70
2022-08-17T01:19:45.272Z,18.55
2022-08-17T01:22:46.895Z,20.45
2022-08-17T01:25:54.807Z,18.30
2022-08-17T01:28:59.285Z,18.35
2022-08-17T01:32:05.582Z,16.10
2022-08-17T01:35:16.340Z,19.77
2022-08-17T01:38:18.329Z,18.33
2022-08-17T01:41:29.264Z,17.52
2022-08-17T01:44:31.276Z,14.85
2022-08-17T01:47:33.060Z,20.90
2022-08-17T01:50:41.441Z,19.08
2022-08-17T01:53:48.162Z,13.80
2022-08-17T01:56:51.674Z,13.90
2022-08-17T01:59:53.268Z,13.80
2022-08-17T02:02:55.257Z,11.32
2022-08-17T02:05:57.500Z,13.07
2022-08-17T02:09:03.187Z,12.88
2022-08-17T02:12:37.656Z,16.73
2022-08-17T02:15:29.132Z,21.15
2022-08-17T02:18:30.871Z,14.45
2022-08-17T02:21:32.670Z,23.55
2022-08-17T02:25:00.159Z,14.95
2022-08-17T02:27:58.835Z,14.93
2022-08-17T02:31:06.215Z,18.38
2022-08-17T02:34:08.179Z,18.90
2022-08-17T02:37:09.816Z,19.17
2022-08-17T02:40:11.621Z,23.42
2022-08-17T02:43:14.641Z,15.25
2022-08-17T02:46:16.327Z,14.38
2022-08-17T02:49:17.908Z,16.50
2022-08-17T02:52:19.581Z,12.80
2022-08-17T02:55:42.744Z,12.85
2022-08-17T02:58:44.339Z,15.63
2022-08-17T03:01:45.992Z,15.40
2022-08-17T03:04:47.667Z,12.30
2022-08-17T03:07:49.301Z,9.13
2022-08-17T03:10:51.095Z,12.20
2022-08-17T03:13:52.736Z,12.00
2022-08-17T03:16:54.311Z,14.05
2022-08-17T03:19:55.880Z,15.20
2022-08-17T03:23:02.755Z,11.45
2022-08-17T03:26:04.695Z,17.23
2022-08-17T03:29:18.805Z,11.63
2022-08-17T03:32:20.610Z,14.98
2022-08-17T03:35:25.240Z,12.75
2022-08-17T03:38:27.137Z,11.32
2022-08-17T03:41:28.988Z,12.60
2022-08-17T03:44:30.582Z,11.43
2022-08-17T03:47:50.953Z,9.00
2022-08-17T03:54:35.089Z,11.23
2022-08-17T03:57:36.998Z,12.48
2022-08-17T04:00:40.430Z,9.73
2022-08-17T04:03:42.063Z,19.67
2022-08-17T04:06:43.829Z,11.38
2022-08-17T04:09:45.400Z,11.20
2022-08-17T04:12:51.249Z,13.07
2022-08-17T04:15:53.813Z,16.52
2022-08-17T04:18:55.491Z,13.23
2022-08-17T04:22:00.154Z,11.30
2022-08-17T04:25:14.589Z,12.57
2022-08-17T04:28:18.424Z,13.95
2022-08-17T04:31:20.216Z,8.63
2022-08-17T04:34:21.775Z,12.13
2022-08-17T04:37:23.783Z,9.48
2022-08-17T04:40:46.062Z,13.15
2022-08-17T04:43:49.489Z,12.10
2022-08-17T04:46:51.044Z,10.00
2022-08-17T04:49:53.454Z,9.88
2022-08-17T04:52:55.600Z,13.10
2022-08-17T04:55:58.935Z,12.52
2022-08-17T04:59:08.763Z,11.23
2022-08-17T05:02:13.673Z,9.38
2022-08-17T05:05:23.684Z,11.80
2022-08-17T05:08:25.596Z,12.98
2022-08-17T05:11:28.683Z,7.90
2022-08-17T05:14:32.418Z,16.77
2022-08-17T05:17:35.229Z,11.02
2022-08-17T05:20:39.291Z,9.70
2022-08-17T05:23:42.032Z,10.45
2022-08-17T05:26:44.743Z,14.57
2022-08-17T05:29:46.733Z,8.60
2022-08-17T05:32:58.810Z,8.80
2022-08-17T05:36:01.602Z,9.75
2022-08-17T05:39:03.692Z,13.65
2022-08-17T05:42:06.113Z,9.77
2022-08-17T05:45:08.687Z,7.20
2022-08-17T05:48:10.271Z,11.35
2022-08-17T05:51:39.525Z,12.15
2022-08-17T05:55:09.387Z,13.80
2022-08-17T05:58:45.668Z,10.85
2022-08-17T06:02:18.120Z,11.77
2022-08-17T06:06:10.466Z,14.85
2022-08-17T06:09:32.998Z,16.98
2022-08-17T06:13:02.719Z,9.00
2022-08-17T06:16:25.803Z,6.00
2022-08-17T06:19:48.019Z,11.35
2022-08-17T06:22:53.511Z,11.38
2022-08-17T06:26:03.721Z,9.70
2022-08-17T06:29:23.581Z,9.50
2022-08-17T06:32:25.528Z,12.65
2022-08-17T06:35:37.585Z,14.98
2022-08-17T06:39:02.978Z,8.40
2022-08-17T06:43:00.819Z,7.30
2022-08-17T06:45:58.912Z,12.40
2022-08-17T06:49:17.941Z,10.95
2022-08-17T06:52:42.137Z,12.48
2022-08-17T06:56:00.901Z,11.23
2022-08-17T06:59:04.497Z,6.97
2022-08-17T07:02:09.709Z,12.35
2022-08-17T07:05:15.389Z,11.40
2022-08-17T07:08:49.775Z,9.52
2022-08-17T07:12:01.783Z,14.48
2022-08-17T07:15:14.656Z,7.35
2022-08-17T07:18:16.345Z,16.00
2022-08-17T07:21:26.483Z,10.77
2022-08-17T07:24:37.156Z,7.38
2022-08-17T07:27:40.388Z,7.63
2022-08-17T07:30:51.009Z,13.52
2022-08-17T07:34:14.505Z,12.93
2022-08-17T07:37:19.225Z,13.48
2022-08-17T07:40:28.796Z,12.98
2022-08-17T07:43:52.646Z,17.52
2022-08-17T07:47:13.151Z,14.15
2022-08-17T07:50:29.182Z,13.32
2022-08-17T07:53:31.840Z,10.15
2022-08-17T07:56:41.093Z,14.65
2022-08-17T07:59:59.288Z,11.68
2022-08-17T08:06:26.299Z,18.23
2022-08-17T08:09:32.606Z,15.93
2022-08-17T08:12:43.433Z,19.23
2022-08-17T08:15:54.255Z,15.27
2022-08-17T08:19:01.559Z,15.30
2022-08-17T08:22:13.252Z,16.13
2022-08-17T08:25:26.159Z,20.67
2022-08-17T08:28:43.372Z,18.77
2022-08-17T08:32:06.684Z,16.23
2022-08-17T08:35:26.526Z,23.25
2022-08-17T08:38:42.969Z,21.77
2022-08-17T08:41:52.161Z,12.52
2022-08-17T08:44:59.738Z,20.10
2022-08-17T08:48:57.808Z,16.00
2022-08-17T08:51:56.819Z,13.00
2022-08-17T08:55:15.282Z,20.27
2022-08-17T08:58:31.616Z,16.58
2022-08-17T09:02:23.833Z,21.70
2022-08-17T09:05:43.768Z,20.15
2022-08-17T09:08:48.413Z,21.30
2022-08-17T09:12:01.924Z,24.42
2022-08-17T09:15:21.958Z,20.35
2022-08-17T09:19:01.185Z,21.95
2022-08-17T09:22:03.274Z,25.20
2022-08-17T09:25:15.167Z,25.83
2022-08-17T09:28:25.719Z,24.48
2022-08-17T09:31:35.583Z,20.30
2022-08-17T09:34:54.848Z,23.77
2022-08-17T09:38:21.624Z,20.30
2022-08-17T09:41:48.872Z,17.27
2022-08-17T09:45:22.608Z,25.50
2022-08-17T09:48:43.512Z,25.15
2022-08-17T09:51:55.761Z,18.95
2022-08-17T09:55:00.093Z,28.45
2022-08-17T09:58:56.292Z,19.23
2022-08-17T10:02:19.661Z,26.40
2022-08-17T10:05:29.000Z,25.48
2022-08-17T10:09:03.969Z,20.07
2022-08-17T10:12:17.780Z,32.65
2022-08-17T10:15:56.743Z,21.67
2022-08-17T10:19:35.111Z,21.63
2022-08-17T10:23:36.433Z,21.20
2022-08-17T10:26:56.187Z,24.67
2022-08-17T10:30:04.485Z,21.65
2022-08-17T10:33:15.315Z,26.83
2022-08-17T10:36:48.890Z,26.15
2022-08-17T10:40:14.618Z,23.33
2022-08-17T10:43:38.355Z,27.02
2022-08-17T10:47:01.344Z,31.67
2022-08-17T10:50:42.534Z,28.02
2022-08-17T10:53:58.447Z,27.90
2022-08-17T10:57:00.083Z,31.25
2022-08-17T11:00:18.924Z,30.27
2022-08-17T11:03:24.000Z,27.77
2022-08-17T11:06:45.837Z,32.95
2022-08-17T11:10:06.806Z,35.05
2022-08-17T11:13:31.190Z,28.63
2022-08-17T11:17:01.963Z,29.52
2022-08-17T11:20:42.585Z,25.92
2022-08-17T11:24:12.564Z,34.05
2022-08-17T11:27:30.844Z,30.27
2022-08-17T11:30:57.589Z,31.20
2022-08-17T11:34:19.043Z,36.75
2022-08-17T11:37:49.627Z,28.73
2022-08-17T11:41:27.347Z,36.30
2022-08-17T11:44:56.937Z,41.75
2022-08-17T11:48:50.400Z,34.93
2022-08-17T11:52:01.127Z,37.50
2022-08-17T11:55:31.776Z,40.67
2022-08-17T11:58:29.169Z,39.90
2022-08-17T12:01:49.298Z,40.72
2022-08-17T12:05:16.901Z,43.25
2022-08-17T12:08:21.419Z,44.47
2022-08-17T12:12:01.708Z,47.67
2022-08-17T12:15:09.966Z,43.92
2022-08-17T12:18:24.557Z,53.30
2022-08-17T12:21:26.119Z,48.38
2022-08-17T12:24:41.659Z,43.45
2022-08-17T12:28:05.571Z,49.10
2022-08-17T12:31:20.329Z,43.55
2022-08-17T12:34:27.949Z,45.40
2022-08-17T12:37:45.043Z,44.08
2022-08-17T12:40:55.449Z,45.40
2022-08-17T12:44:13.636Z,53.70
2022-08-17T12:47:22.330Z,52.53
2022-08-17T12:50:29.457Z,49.60
2022-08-17T12:53:35.063Z,55.00
2022-08-17T12:56:36.754Z,54.58
2022-08-17T12:59:42.049Z,52.05
2022-08-17T13:02:48.227Z,52.90
2022-08-17T13:05:52.614Z,50.33
2022-08-17T13:08:54.622Z,65.25
2022-08-17T13:11:59.521Z,53.55
2022-08-17T13:15:01.780Z,54.15
2022-08-17T13:18:42.329Z,57.70
2022-08-17T13:21:49.691Z,58.88
2022-08-17T13:24:57.907Z,56.72
2022-08-17T13:27:59.638Z,56.95
2022-08-17T13:31:51.956Z,59.00
2022-08-17T13:35:12.306Z,48.85
2022-08-17T13:38:45.412Z,55.22
2022-08-17T13:41:48.627Z,52.88
2022-08-17T13:44:50.240Z,59.00
2022-08-17T13:48:16.932Z,65.35
2022-08-17T13:51:35.474Z,63.38
2022-08-17T13:54:39.110Z,60.70
2022-08-17T13:57:46.427Z,61.95
2022-08-17T14:00:48.303Z,54.88
2022-08-17T14:03:51.422Z,64.47
2022-08-17T14:07:02.183Z,64.25
2022-08-17T14:10:17.319Z,55.00
2022-08-17T14:13:18.908Z,64.53
2022-08-17T14:16:22.357Z,55.28
2022-08-17T14:19:25.403Z,54.05
2022-08-17T14:22:33.779Z,55.58
2022-08-17T14:25:35.625Z,68.28
2022-08-17T14:28:38.645Z,60.33
2022-08-17T14:31:56.909Z,56.00
2022-08-17T14:35:00.625Z,51.97
2022-08-17T14:38:02.233Z,54.03
2022-08-17T14:41:04.654Z,50.28
2022-08-17T14:44:06.757Z,59.58
2022-08-17T14:47:14.796Z,54.42
2022-08-17T14:50:21.229Z,51.55
2022-08-17T14:53:24.073Z,53.33
2022-08-17T14:56:25.991Z,56.05
2022-08-17T14:59:27.619Z,68.65
2022-08-17T15:02:30.832Z,51.22
2022-08-17T15:05:36.465Z,54.05
2022-08-17T15:08:38.090Z,53.83
2022-08-17T15:11:40.281Z,55.20
2022-08-17T15:14:41.896Z,52.67
2022-08-17T15:17:45.984Z,51.88
2022-08-17T15:20:50.178Z,48.97
2022-08-17T15:23:51.813Z,51.63
2022-08-17T15:26:53.409Z,53.22
2022-08-17T15:29:54.999Z,54.28
2022-08-17T15:32:58.546Z,44.17
2022-08-17T15:36:04.398Z,47.97
2022-08-17T15:39:06.022Z,45.78
2022-08-17T15:42:09.259Z,48.47
2022-08-17T15:45:13.824Z,41.85
2022-08-17T15:48:15.511Z,46.53
2022-08-17T15:51:31.111Z,48.58
2022-08-17T15:54:34.693Z,48.65
2022-08-17T15:57:38.043Z,42.63
2022-08-17T16:00:49.382Z,45.92
2022-08-17T16:04:04.336Z,39.10
2022-08-17T16:07:08.911Z,39.70
2022-08-17T16:10:16.651Z,42.03
2022-08-17T16:13:20.524Z,47.90
2022-08-17T16:16:23.494Z,44.17
2022-08-17T16:19:25.223Z,41.33
2022-08-17T16:22:33.409Z,45.67
2022-08-17T16:25:52.227Z,48.17
2022-08-17T16:28:58.005Z,48.78
2022-08-17T16:32:08.789Z,44.88
2022-08-17T16:35:12.032Z,43.20
2022-08-17T16:38:13.605Z,37.58
2022-08-17T16:41:35.720Z,31.92
2022-08-17T16:44:37.347Z,42.90
2022-08-17T16:47:39.463Z,35.60
2022-08-17T16:50:41.696Z,47.42
2022-08-17T16:54:04.711Z,43.08
2022-08-17T16:57:06.463Z,37.40
2022-08-17T17:00:12.529Z,48.33
2022-08-17T17:03:24.648Z,50.33
2022-08-17T17:06:47.823Z,50.15
2022-08-17T17:09:52.362Z,51.88
2022-08-17T17:13:03.703Z,47.53
2022-08-17T17:16:17.402Z,48.10
2022-08-17T17:19:34.861Z,51.70
2022-08-17T17:22:49.277Z,52.15
2022-08-17T17:26:13.420Z,55.85
2022-08-17T17:29:28.420Z,46.30
2022-08-17T17:32:59.498Z,46.28
2022-08-17T17:36:12.946Z,44.80
2022-08-17T17:39:20.116Z,44.72
2022-08-17T17:42:28.729Z,43.40
2022-08-17T17:45:40.340Z,43.38
2022-08-17T17:48:41.938Z,39.33
2022-08-17T17:52:21.808Z,39.53
2022-08-17T17:55:32.848Z,39.53
2022-08-17T17:59:14.696Z,39.60
2022-08-17T18:02:52.000Z,36.42
2022-08-17T18:06:12.346Z,37.70
2022-08-17T18:09:35.080Z,39.30
2022-08-17T18:12:46.061Z,36.25
2022-08-17T18:15:54.047Z,36.40
2022-08-17T18:18:57.585Z,42.17
2022-08-17T18:22:07.822Z,39.88
2022-08-17T18:25:46.540Z,42.90
2022-08-17T18:28:51.127Z,50.30
2022-08-17T18:32:11.499Z,51.67
2022-08-17T18:35:15.852Z,41.13
2022-08-17T18:38:27.727Z,34.28
2022-08-17T18:41:35.737Z,40.72
2022-08-17T18:44:40.340Z,40.15
2022-08-17T18:47:55.360Z,42.05
2022-08-17T18:51:01.063Z,40.05
2022-08-17T18:54:05.424Z,43.42
2022-08-17T18:57:10.587Z,38.38
2022-08-17T19:00:23.062Z,49.15
2022-08-17T19:03:26.116Z,46.60
2022-08-17T19:06:33.994Z,41.92
2022-08-17T19:09:42.080Z,46.78
2022-08-17T19:13:12.172Z,38.83
2022-08-17T19:16:23.990Z,42.63
2022-08-17T19:19:28.384Z,45.97
2022-08-17T19:22:58.002Z,35.80
2022-08-17T19:26:02.384Z,43.43
2022-08-17T19:29:16.396Z,44.03
2022-08-17T19:32:28.938Z,44.88
2022-08-17T19:35:43.421Z,43.95
2022-08-17T19:39:07.705Z,45.55
2022-08-17T19:42:37.074Z,43.35
2022-08-17T19:45:59.213Z,39.28
2022-08-17T19:49:09.902Z,47.08
2022-08-17T19:52:37.483Z,40.95
2022-08-17T19:55:47.489Z,43.60
2022-08-17T19:59:05.794Z,47.25
2022-08-17T20:02:34.528Z,40.40
2022-08-17T20:09:33.439Z,39.38
2022-08-17T20:15:42.173Z,40.20
2022-08-17T20:19:04.676Z,42.03
2022-08-17T20:22:19.956Z,40.85
2022-08-17T20:25:35.704Z,38.28
2022-08-17T20:28:39.068Z,39.58
2022-08-17T20:31:55.985Z,44.78
2022-08-17T20:35:17.742Z,45.08
2022-08-17T20:38:41.327Z,39.97
2022-08-17T20:42:04.722Z,37.58
2022-08-17T20:45:21.582Z,43.20
2022-08-17T20:48:37.835Z,40.70
2022-08-17T20:52:00.758Z,41.90
2022-08-17T20:55:04.906Z,45.20
2022-08-17T20:58:19.296Z,46.50
2022-08-17T21:01:37.273Z,38.78
2022-08-17T21:04:43.825Z,45.35
2022-08-17T21:07:56.252Z,43.25
2022-08-17T21:10:59.973Z,45.45
2022-08-17T21:14:09.022Z,38.42
2022-08-17T21:17:19.621Z,45.88
2022-08-17T21:20:55.512Z,45.58
2022-08-17T21:24:28.656Z,43.75
2022-08-17T21:27:37.863Z,44.25
2022-08-17T21:30:39.390Z,39.30
2022-08-17T21:34:16.436Z,47.30
2022-08-17T21:37:23.734Z,46.42
2022-08-17T21:40:29.002Z,46.40
2022-08-17T21:43:36.463Z,43.13
2022-08-17T21:46:42.824Z,51.53
2022-08-17T21:49:49.023Z,51.47
2022-08-17T21:53:02.123Z,46.05
2022-08-17T21:56:04.635Z,43.03
2022-08-17T21:59:24.311Z,46.63
2022-08-17T22:02:32.226Z,51.63
2022-08-17T22:05:37.772Z,46.53
2022-08-17T22:08:39.493Z,46.38
2022-08-17T22:11:52.496Z,50.85
2022-08-17T22:15:07.430Z,48.90
2022-08-17T22:18:25.440Z,52.25
2022-08-17T22:21:27.459Z,59.90
2022-08-17T22:24:30.904Z,52.47
2022-08-17T22:27:52.014Z,57.28
2022-08-17T22:31:03.419Z,59.70
2022-08-17T22:34:15.049Z,63.95
2022-08-17T22:37:27.556Z,56.38
2022-08-17T22:40:32.395Z,67.30
2022-08-17T22:43:38.403Z,61.85
2022-08-17T22:46:53.178Z,52.50
2022-08-17T22:50:03.684Z,57.33
2022-08-17T22:57:26.788Z,55.17
2022-08-17T23:00:41.594Z,64.72
2022-08-17T23:03:54.561Z,57.28
2022-08-17T23:06:56.554Z,63.35
2022-08-17T23:10:01.938Z,82.43
2022-08-17T23:13:03.905Z,70.63
2022-08-17T23:16:05.700Z,82.20
2022-08-17T23:19:08.356Z,64.68
2022-08-17T23:22:11.086Z,68.03
2022-08-17T23:25:16.945Z,61.50
2022-08-17T23:28:18.572Z,67.97
2022-08-17T23:31:20.570Z,68.03
2022-08-17T23:34:28.367Z,78.03
2022-08-17T23:37:29.947Z,78.47
2022-08-17T23:40:31.574Z,86.70
2022-08-17T23:43:33.736Z,98.43
2022-08-17T23:46:35.341Z,79.15
2022-08-17T23:49:37.478Z,81.63
2022-08-17T23:52:41.058Z,88.57
2022-08-17T23:55:42.700Z,85.65
2022-08-17T23:58:44.833Z,96.55
